sensor_id;sensor_type;location;lat;lon;timestamp;P1;durP1;ratioP1;P2;durP2;ratioP2
2147;SDS011;1080;48.724;9.104;2022-11-15T00:01:07;3.57;;;2.40;;
2147;SDS011;1080;48.724;9.104;2022-11-15T00:03:34;3.00;;;2.20;;
2147;SDS011;1080;48.724;9.104;2022-11-15T00:06:02;4.07;;;2.50;;
2147;SDS011;1080;48.724;9.104;2022-11-15T00:08:31;3.60;;;2.17;;
2147;SDS011;1080;48.724;9.104;2022-11-15T00:10:59;2.50;;;2.23;;
2147;SDS011;1080;48.724;9.104;2022-11-15T00:13:27;4.00;;;1.83;;
2147;SDS011;1080;48.724;9.104;2022-11-15T00:15:56;6.97;;;2.50;;
2147;SDS011;1080;48.724;9.104;2022-11-15T00:18:23;7.30;;;2.97;;
2147;SDS011;1080;48.724;9.104;2022-11-15T00:20:50;3.53;;;2.43;;
2147;SDS011;1080;48.724;9.104;2022-11-15T00:23:17;3.40;;;2.53;;
2147;SDS011;1080;48.724;9.104;2022-11-15T00:25:46;4.17;;;2.67;;
2147;SDS011;1080;48.724;9.104;2022-11-15T00:28:13;7.10;;;1.80;;
2147;SDS011;1080;48.724;9.104;2022-11-15T00:30:40;2.80;;;1.93;;
2147;SDS011;1080;48.724;9.104;2022-11-15T00:33:08;5.83;;;2.00;;
2147;SDS011;1080;48.724;9.104;2022-11-15T00:35:35;2.63;;;1.90;;
2147;SDS011;1080;48.724;9.104;2022-11-15T00:38:02;2.27;;;2.07;;
2147;SDS011;1080;48.724;9.104;2022-11-15T00:40:29;2.07;;;1.70;;
2147;SDS011;1080;48.724;9.104;2022-11-15T00:42:58;3.47;;;1.97;;
2147;SDS011;1080;48.724;9.104;2022-11-15T00:45:25;3.50;;;2.20;;
2147;SDS011;1080;48.724;9.104;2022-11-15T00:47:52;8.63;;;1.93;;
2147;SDS011;1080;48.724;9.104;2022-11-15T00:50:19;4.90;;;2.00;;
2147;SDS011;1080;48.724;9.104;2022-11-15T00:52:46;2.23;;;2.03;;
2147;SDS011;1080;48.724;9.104;2022-11-15T00:55:14;3.07;;;1.70;;
2147;SDS011;1080;48.724;9.104;2022-11-15T00:57:43;4.23;;;2.17;;
2147;SDS011;1080;48.724;9.104;2022-11-15T01:00:12;5.30;;;2.00;;
2147;SDS011;1080;48.724;9.104;2022-11-15T01:02:39;1.80;;;1.57;;
2147;SDS011;1080;48.724;9.104;2022-11-15T01:05:07;3.27;;;2.20;;
2147;SDS011;1080;48.724;9.104;2022-11-15T01:07:34;3.93;;;1.97;;
2147;SDS011;1080;48.724;9.104;2022-11-15T01:10:02;2.00;;;1.77;;
2147;SDS011;1080;48.724;9.104;2022-11-15T01:12:29;3.17;;;2.10;;
2147;SDS011;1080;48.724;9.104;2022-11-15T01:14:56;2.50;;;1.80;;
2147;SDS011;1080;48.724;9.104;2022-11-15T01:17:25;1.20;;;1.10;;
2147;SDS011;1080;48.724;9.104;2022-11-15T01:19:53;1.40;;;1.30;;
2147;SDS011;1080;48.724;9.104;2022-11-15T01:22:20;1.87;;;1.30;;
2147;SDS011;1080;48.724;9.104;2022-11-15T01:24:49;1.87;;;1.60;;
2147;SDS011;1080;48.724;9.104;2022-11-15T01:27:16;1.53;;;1.30;;
2147;SDS011;1080;48.724;9.104;2022-11-15T01:29:43;2.40;;;1.53;;
2147;SDS011;1080;48.724;9.104;2022-11-15T01:32:10;3.70;;;2.10;;
2147;SDS011;1080;48.724;9.104;2022-11-15T01:34:39;1.93;;;1.73;;
2147;SDS011;1080;48.724;9.104;2022-11-15T01:37:06;3.20;;;1.73;;
2147;SDS011;1080;48.724;9.104;2022-11-15T01:39:33;2.43;;;1.47;;
2147;SDS011;1080;48.724;9.104;2022-11-15T01:42:00;2.10;;;1.67;;
2147;SDS011;1080;48.724;9.104;2022-11-15T01:44:41;3.60;;;2.03;;
2147;SDS011;1080;48.724;9.104;2022-11-15T01:47:11;3.23;;;1.77;;
2147;SDS011;1080;48.724;9.104;2022-11-15T01:49:44;2.37;;;1.80;;
2147;SDS011;1080;48.724;9.104;2022-11-15T01:52:17;2.87;;;1.93;;
2147;SDS011;1080;48.724;9.104;2022-11-15T01:54:47;2.40;;;1.43;;
2147;SDS011;1080;48.724;9.104;2022-11-15T01:57:16;1.53;;;1.40;;
2147;SDS011;1080;48.724;9.104;2022-11-15T01:59:43;1.63;;;1.50;;
2147;SDS011;1080;48.724;9.104;2022-11-15T02:02:11;2.60;;;1.60;;
2147;SDS011;1080;48.724;9.104;2022-11-15T02:04:40;4.53;;;1.90;;
2147;SDS011;1080;48.724;9.104;2022-11-15T02:07:11;1.40;;;1.30;;
2147;SDS011;1080;48.724;9.104;2022-11-15T02:09:41;1.43;;;1.30;;
2147;SDS011;1080;48.724;9.104;2022-11-15T02:12:08;2.97;;;1.27;;
2147;SDS011;1080;48.724;9.104;2022-11-15T02:14:37;2.47;;;1.63;;
2147;SDS011;1080;48.724;9.104;2022-11-15T02:17:10;5.10;;;1.90;;
2147;SDS011;1080;48.724;9.104;2022-11-15T02:19:54;1.73;;;1.63;;
2147;SDS011;1080;48.724;9.104;2022-11-15T02:22:42;1.17;;;0.90;;
2147;SDS011;1080;48.724;9.104;2022-11-15T02:25:30;3.70;;;1.67;;
2147;SDS011;1080;48.724;9.104;2022-11-15T02:28:25;2.30;;;1.60;;
2147;SDS011;1080;48.724;9.104;2022-11-15T02:31:04;3.27;;;1.27;;
2147;SDS011;1080;48.724;9.104;2022-11-15T02:33:37;1.70;;;1.40;;
2147;SDS011;1080;48.724;9.104;2022-11-15T02:36:10;1.93;;;1.70;;
2147;SDS011;1080;48.724;9.104;2022-11-15T02:38:43;2.70;;;1.93;;
2147;SDS011;1080;48.724;9.104;2022-11-15T02:41:16;2.70;;;1.97;;
2147;SDS011;1080;48.724;9.104;2022-11-15T02:43:50;1.80;;;1.60;;
2147;SDS011;1080;48.724;9.104;2022-11-15T02:46:25;3.50;;;1.47;;
2147;SDS011;1080;48.724;9.104;2022-11-15T02:49:15;2.60;;;1.93;;
2147;SDS011;1080;48.724;9.104;2022-11-15T02:51:42;2.60;;;2.10;;
2147;SDS011;1080;48.724;9.104;2022-11-15T02:54:12;2.13;;;1.60;;
2147;SDS011;1080;48.724;9.104;2022-11-15T02:56:41;2.87;;;1.70;;
2147;SDS011;1080;48.724;9.104;2022-11-15T02:59:18;1.90;;;1.77;;
2147;SDS011;1080;48.724;9.104;2022-11-15T03:01:59;2.90;;;1.83;;
2147;SDS011;1080;48.724;9.104;2022-11-15T03:04:39;3.57;;;2.13;;
2147;SDS011;1080;48.724;9.104;2022-11-15T03:07:11;1.57;;;1.30;;
2147;SDS011;1080;48.724;9.104;2022-11-15T03:09:42;1.40;;;1.20;;
2147;SDS011;1080;48.724;9.104;2022-11-15T03:12:22;2.80;;;2.00;;
2147;SDS011;1080;48.724;9.104;2022-11-15T03:14:56;2.13;;;1.50;;
2147;SDS011;1080;48.724;9.104;2022-11-15T03:17:28;2.70;;;2.20;;
2147;SDS011;1080;48.724;9.104;2022-11-15T03:20:00;1.60;;;1.40;;
2147;SDS011;1080;48.724;9.104;2022-11-15T03:22:30;1.93;;;1.70;;
2147;SDS011;1080;48.724;9.104;2022-11-15T03:25:03;3.73;;;2.53;;
2147;SDS011;1080;48.724;9.104;2022-11-15T03:27:33;3.43;;;2.10;;
2147;SDS011;1080;48.724;9.104;2022-11-15T03:30:05;3.07;;;1.93;;
2147;SDS011;1080;48.724;9.104;2022-11-15T03:32:35;2.67;;;1.87;;
2147;SDS011;1080;48.724;9.104;2022-11-15T03:35:06;1.63;;;1.53;;
2147;SDS011;1080;48.724;9.104;2022-11-15T03:37:39;3.53;;;2.00;;
2147;SDS011;1080;48.724;9.104;2022-11-15T03:40:10;5.30;;;2.27;;
2147;SDS011;1080;48.724;9.104;2022-11-15T03:42:38;2.80;;;1.93;;
2147;SDS011;1080;48.724;9.104;2022-11-15T03:45:12;3.80;;;1.90;;
2147;SDS011;1080;48.724;9.104;2022-11-15T03:47:45;6.60;;;2.20;;
2147;SDS011;1080;48.724;9.104;2022-11-15T03:50:16;3.47;;;2.10;;
2147;SDS011;1080;48.724;9.104;2022-11-15T03:52:45;4.43;;;1.93;;
2147;SDS011;1080;48.724;9.104;2022-11-15T03:55:14;3.20;;;2.30;;
2147;SDS011;1080;48.724;9.104;2022-11-15T03:57:42;2.60;;;2.07;;
2147;SDS011;1080;48.724;9.104;2022-11-15T04:00:10;3.27;;;1.70;;
2147;SDS011;1080;48.724;9.104;2022-11-15T04:02:38;3.33;;;2.20;;
2147;SDS011;1080;48.724;9.104;2022-11-15T04:05:07;4.53;;;2.07;;
2147;SDS011;1080;48.724;9.104;2022-11-15T04:07:34;2.83;;;2.23;;
2147;SDS011;1080;48.724;9.104;2022-11-15T04:10:01;2.40;;;1.90;;
2147;SDS011;1080;48.724;9.104;2022-11-15T04:12:28;2.03;;;1.80;;
2147;SDS011;1080;48.724;9.104;2022-11-15T04:14:59;3.73;;;2.53;;
2147;SDS011;1080;48.724;9.104;2022-11-15T04:17:33;2.77;;;1.63;;
2147;SDS011;1080;48.724;9.104;2022-11-15T04:20:00;7.00;;;1.87;;
2147;SDS011;1080;48.724;9.104;2022-11-15T04:22:46;5.10;;;2.27;;
2147;SDS011;1080;48.724;9.104;2022-11-15T04:25:32;4.53;;;2.40;;
2147;SDS011;1080;48.724;9.104;2022-11-15T04:27:59;2.07;;;1.83;;
2147;SDS011;1080;48.724;9.104;2022-11-15T04:30:26;5.03;;;2.30;;
2147;SDS011;1080;48.724;9.104;2022-11-15T04:32:53;5.73;;;2.20;;
2147;SDS011;1080;48.724;9.104;2022-11-15T04:35:20;2.57;;;1.80;;
2147;SDS011;1080;48.724;9.104;2022-11-15T04:37:48;2.63;;;2.37;;
2147;SDS011;1080;48.724;9.104;2022-11-15T04:40:14;2.97;;;2.07;;
2147;SDS011;1080;48.724;9.104;2022-11-15T04:42:42;2.43;;;2.00;;
2147;SDS011;1080;48.724;9.104;2022-11-15T04:45:09;3.67;;;2.57;;
2147;SDS011;1080;48.724;9.104;2022-11-15T04:47:36;3.00;;;2.20;;
2147;SDS011;1080;48.724;9.104;2022-11-15T04:50:03;2.97;;;2.00;;
2147;SDS011;1080;48.724;9.104;2022-11-15T04:52:30;5.87;;;2.20;;
2147;SDS011;1080;48.724;9.104;2022-11-15T04:54:59;2.07;;;1.87;;
2147;SDS011;1080;48.724;9.104;2022-11-15T04:57:26;4.10;;;2.30;;
2147;SDS011;1080;48.724;9.104;2022-11-15T04:59:53;2.47;;;1.73;;
2147;SDS011;1080;48.724;9.104;2022-11-15T05:02:20;2.13;;;1.90;;
2147;SDS011;1080;48.724;9.104;2022-11-15T05:04:47;5.77;;;2.20;;
2147;SDS011;1080;48.724;9.104;2022-11-15T05:07:13;2.10;;;1.90;;
2147;SDS011;1080;48.724;9.104;2022-11-15T05:09:40;2.30;;;1.97;;
2147;SDS011;1080;48.724;9.104;2022-11-15T05:12:09;3.07;;;2.17;;
2147;SDS011;1080;48.724;9.104;2022-11-15T05:14:35;2.70;;;1.90;;
2147;SDS011;1080;48.724;9.104;2022-11-15T05:17:02;5.30;;;1.70;;
2147;SDS011;1080;48.724;9.104;2022-11-15T05:19:29;5.60;;;2.80;;
2147;SDS011;1080;48.724;9.104;2022-11-15T05:21:56;6.43;;;3.97;;
2147;SDS011;1080;48.724;9.104;2022-11-15T05:24:24;4.70;;;3.63;;
2147;SDS011;1080;48.724;9.104;2022-11-15T05:26:51;4.17;;;3.40;;
2147;SDS011;1080;48.724;9.104;2022-11-15T05:29:20;4.10;;;3.37;;
2147;SDS011;1080;48.724;9.104;2022-11-15T05:31:47;4.60;;;2.90;;
2147;SDS011;1080;48.724;9.104;2022-11-15T05:34:14;7.13;;;3.90;;
2147;SDS011;1080;48.724;9.104;2022-11-15T05:36:42;7.10;;;4.80;;
2147;SDS011;1080;48.724;9.104;2022-11-15T05:39:10;5.60;;;3.63;;
2147;SDS011;1080;48.724;9.104;2022-11-15T05:41:38;30.37;;;17.43;;
2147;SDS011;1080;48.724;9.104;2022-11-15T05:44:10;7.53;;;5.40;;
2147;SDS011;1080;48.724;9.104;2022-11-15T05:46:41;5.73;;;4.17;;
2147;SDS011;1080;48.724;9.104;2022-11-15T05:49:09;7.03;;;3.40;;
2147;SDS011;1080;48.724;9.104;2022-11-15T05:51:39;6.40;;;4.17;;
2147;SDS011;1080;48.724;9.104;2022-11-15T05:54:06;4.47;;;3.60;;
2147;SDS011;1080;48.724;9.104;2022-11-15T05:56:34;4.50;;;2.90;;
2147;SDS011;1080;48.724;9.104;2022-11-15T05:59:01;7.93;;;3.47;;
2147;SDS011;1080;48.724;9.104;2022-11-15T06:01:28;5.50;;;2.70;;
2147;SDS011;1080;48.724;9.104;2022-11-15T06:03:57;4.30;;;2.50;;
2147;SDS011;1080;48.724;9.104;2022-11-15T06:06:24;6.10;;;5.13;;
2147;SDS011;1080;48.724;9.104;2022-11-15T06:08:51;5.20;;;3.30;;
2147;SDS011;1080;48.724;9.104;2022-11-15T06:11:18;3.57;;;2.47;;
2147;SDS011;1080;48.724;9.104;2022-11-15T06:13:45;3.00;;;2.17;;
2147;SDS011;1080;48.724;9.104;2022-11-15T06:16:12;2.40;;;2.20;;
2147;SDS011;1080;48.724;9.104;2022-11-15T06:18:39;9.10;;;6.60;;
2147;SDS011;1080;48.724;9.104;2022-11-15T06:21:08;22.13;;;15.40;;
2147;SDS011;1080;48.724;9.104;2022-11-15T06:23:35;5.23;;;4.00;;
2147;SDS011;1080;48.724;9.104;2022-11-15T06:26:02;11.30;;;9.73;;
2147;SDS011;1080;48.724;9.104;2022-11-15T06:28:29;9.83;;;6.97;;
2147;SDS011;1080;48.724;9.104;2022-11-15T06:31:01;11.27;;;5.80;;
2147;SDS011;1080;48.724;9.104;2022-11-15T06:33:28;7.00;;;4.07;;
2147;SDS011;1080;48.724;9.104;2022-11-15T06:35:55;7.43;;;3.47;;
2147;SDS011;1080;48.724;9.104;2022-11-15T06:38:24;7.60;;;5.50;;
2147;SDS011;1080;48.724;9.104;2022-11-15T06:40:51;7.93;;;3.97;;
2147;SDS011;1080;48.724;9.104;2022-11-15T06:43:18;5.40;;;4.40;;
2147;SDS011;1080;48.724;9.104;2022-11-15T06:45:45;17.03;;;5.73;;
2147;SDS011;1080;48.724;9.104;2022-11-15T06:48:12;11.60;;;5.83;;
2147;SDS011;1080;48.724;9.104;2022-11-15T06:50:40;8.70;;;5.10;;
2147;SDS011;1080;48.724;9.104;2022-11-15T06:53:07;10.50;;;6.83;;
2147;SDS011;1080;48.724;9.104;2022-11-15T06:55:35;21.67;;;19.03;;
2147;SDS011;1080;48.724;9.104;2022-11-15T06:58:02;12.30;;;9.13;;
2147;SDS011;1080;48.724;9.104;2022-11-15T07:00:29;6.07;;;5.00;;
2147;SDS011;1080;48.724;9.104;2022-11-15T07:02:59;4.43;;;3.50;;
2147;SDS011;1080;48.724;9.104;2022-11-15T07:05:26;7.80;;;4.60;;
2147;SDS011;1080;48.724;9.104;2022-11-15T07:07:53;6.43;;;3.50;;
2147;SDS011;1080;48.724;9.104;2022-11-15T07:10:20;21.63;;;3.50;;
2147;SDS011;1080;48.724;9.104;2022-11-15T07:12:50;10.63;;;5.93;;
2147;SDS011;1080;48.724;9.104;2022-11-15T07:15:18;8.10;;;5.60;;
2147;SDS011;1080;48.724;9.104;2022-11-15T07:17:46;6.53;;;4.17;;
2147;SDS011;1080;48.724;9.104;2022-11-15T07:20:13;4.40;;;3.93;;
2147;SDS011;1080;48.724;9.104;2022-11-15T07:22:41;4.80;;;4.27;;
2147;SDS011;1080;48.724;9.104;2022-11-15T07:25:08;10.93;;;7.53;;
2147;SDS011;1080;48.724;9.104;2022-11-15T07:27:35;11.23;;;4.17;;
2147;SDS011;1080;48.724;9.104;2022-11-15T07:30:04;7.70;;;5.70;;
2147;SDS011;1080;48.724;9.104;2022-11-15T07:32:32;5.17;;;3.70;;
2147;SDS011;1080;48.724;9.104;2022-11-15T07:34:59;10.80;;;4.03;;
2147;SDS011;1080;48.724;9.104;2022-11-15T07:37:26;5.50;;;4.40;;
2147;SDS011;1080;48.724;9.104;2022-11-15T07:39:53;8.10;;;3.87;;
2147;SDS011;1080;48.724;9.104;2022-11-15T07:42:20;9.70;;;8.43;;
2147;SDS011;1080;48.724;9.104;2022-11-15T07:45:06;9.30;;;6.00;;
2147;SDS011;1080;48.724;9.104;2022-11-15T07:47:34;6.93;;;4.33;;
2147;SDS011;1080;48.724;9.104;2022-11-15T07:50:01;19.37;;;14.50;;
2147;SDS011;1080;48.724;9.104;2022-11-15T07:52:29;11.30;;;8.10;;
2147;SDS011;1080;48.724;9.104;2022-11-15T07:54:56;33.73;;;24.17;;
2147;SDS011;1080;48.724;9.104;2022-11-15T07:57:23;136.53;;;122.40;;
2147;SDS011;1080;48.724;9.104;2022-11-15T07:59:51;19.93;;;17.83;;
2147;SDS011;1080;48.724;9.104;2022-11-15T08:02:19;11.30;;;7.90;;
2147;SDS011;1080;48.724;9.104;2022-11-15T08:04:46;14.87;;;9.60;;
2147;SDS011;1080;48.724;9.104;2022-11-15T08:07:13;21.43;;;8.70;;
2147;SDS011;1080;48.724;9.104;2022-11-15T08:09:41;18.80;;;9.17;;
2147;SDS011;1080;48.724;9.104;2022-11-15T08:12:08;18.33;;;11.37;;
2147;SDS011;1080;48.724;9.104;2022-11-15T08:14:36;13.37;;;7.73;;
2147;SDS011;1080;48.724;9.104;2022-11-15T08:17:03;10.03;;;5.33;;
2147;SDS011;1080;48.724;9.104;2022-11-15T08:19:32;11.30;;;7.27;;
2147;SDS011;1080;48.724;9.104;2022-11-15T08:21:59;8.17;;;4.30;;
2147;SDS011;1080;48.724;9.104;2022-11-15T08:24:26;7.77;;;4.80;;
2147;SDS011;1080;48.724;9.104;2022-11-15T08:26:53;6.10;;;4.23;;
2147;SDS011;1080;48.724;9.104;2022-11-15T08:29:20;16.93;;;9.80;;
2147;SDS011;1080;48.724;9.104;2022-11-15T08:31:47;7.97;;;5.23;;
2147;SDS011;1080;48.724;9.104;2022-11-15T08:34:14;5.70;;;3.57;;
2147;SDS011;1080;48.724;9.104;2022-11-15T08:36:43;5.93;;;3.80;;
2147;SDS011;1080;48.724;9.104;2022-11-15T08:39:10;4.90;;;3.70;;
2147;SDS011;1080;48.724;9.104;2022-11-15T08:41:37;9.93;;;4.90;;
2147;SDS011;1080;48.724;9.104;2022-11-15T08:44:04;6.70;;;4.20;;
2147;SDS011;1080;48.724;9.104;2022-11-15T08:46:32;5.87;;;3.20;;
2147;SDS011;1080;48.724;9.104;2022-11-15T08:48:59;5.70;;;3.43;;
2147;SDS011;1080;48.724;9.104;2022-11-15T08:51:26;5.40;;;3.07;;
2147;SDS011;1080;48.724;9.104;2022-11-15T08:53:54;5.03;;;3.40;;
2147;SDS011;1080;48.724;9.104;2022-11-15T08:56:21;3.73;;;2.47;;
2147;SDS011;1080;48.724;9.104;2022-11-15T08:58:48;3.80;;;2.30;;
2147;SDS011;1080;48.724;9.104;2022-11-15T09:01:15;2.87;;;2.40;;
2147;SDS011;1080;48.724;9.104;2022-11-15T09:03:43;2.67;;;2.00;;
2147;SDS011;1080;48.724;9.104;2022-11-15T09:06:10;3.27;;;1.90;;
2147;SDS011;1080;48.724;9.104;2022-11-15T09:08:37;4.60;;;1.83;;
2147;SDS011;1080;48.724;9.104;2022-11-15T09:11:06;3.10;;;1.40;;
2147;SDS011;1080;48.724;9.104;2022-11-15T09:13:34;1.50;;;1.40;;
2147;SDS011;1080;48.724;9.104;2022-11-15T09:16:02;2.97;;;1.50;;
2147;SDS011;1080;48.724;9.104;2022-11-15T09:18:29;2.40;;;1.80;;
2147;SDS011;1080;48.724;9.104;2022-11-15T09:20:57;4.90;;;2.37;;
2147;SDS011;1080;48.724;9.104;2022-11-15T09:23:25;1.77;;;1.33;;
2147;SDS011;1080;48.724;9.104;2022-11-15T09:25:52;2.33;;;1.60;;
2147;SDS011;1080;48.724;9.104;2022-11-15T09:28:20;2.90;;;1.40;;
2147;SDS011;1080;48.724;9.104;2022-11-15T09:30:47;1.93;;;1.63;;
2147;SDS011;1080;48.724;9.104;2022-11-15T09:33:14;1.60;;;1.40;;
2147;SDS011;1080;48.724;9.104;2022-11-15T09:35:41;2.00;;;1.60;;
2147;SDS011;1080;48.724;9.104;2022-11-15T09:38:09;2.70;;;1.70;;
2147;SDS011;1080;48.724;9.104;2022-11-15T09:40:36;2.00;;;1.53;;
2147;SDS011;1080;48.724;9.104;2022-11-15T09:43:06;2.50;;;1.77;;
2147;SDS011;1080;48.724;9.104;2022-11-15T09:45:46;3.17;;;1.73;;
2147;SDS011;1080;48.724;9.104;2022-11-15T09:48:28;1.70;;;1.30;;
2147;SDS011;1080;48.724;9.104;2022-11-15T09:51:08;4.30;;;1.87;;
2147;SDS011;1080;48.724;9.104;2022-11-15T09:53:41;1.13;;;1.03;;
2147;SDS011;1080;48.724;9.104;2022-11-15T09:56:18;3.10;;;1.60;;
2147;SDS011;1080;48.724;9.104;2022-11-15T09:58:49;2.10;;;1.40;;
2147;SDS011;1080;48.724;9.104;2022-11-15T10:01:28;2.40;;;1.90;;
2147;SDS011;1080;48.724;9.104;2022-11-15T10:04:03;2.63;;;1.63;;
2147;SDS011;1080;48.724;9.104;2022-11-15T10:06:31;2.47;;;1.30;;
2147;SDS011;1080;48.724;9.104;2022-11-15T10:09:03;2.50;;;1.10;;
2147;SDS011;1080;48.724;9.104;2022-11-15T10:11:37;5.10;;;1.30;;
2147;SDS011;1080;48.724;9.104;2022-11-15T10:14:05;1.40;;;1.10;;
2147;SDS011;1080;48.724;9.104;2022-11-15T10:20:02;3.00;;;1.40;;
2147;SDS011;1080;48.724;9.104;2022-11-15T10:22:37;1.73;;;1.40;;
2147;SDS011;1080;48.724;9.104;2022-11-15T10:25:10;4.60;;;2.53;;
2147;SDS011;1080;48.724;9.104;2022-11-15T10:27:43;5.80;;;1.73;;
2147;SDS011;1080;48.724;9.104;2022-11-15T10:30:14;3.73;;;1.30;;
2147;SDS011;1080;48.724;9.104;2022-11-15T10:32:44;2.00;;;1.70;;
2147;SDS011;1080;48.724;9.104;2022-11-15T10:35:18;2.07;;;1.80;;
2147;SDS011;1080;48.724;9.104;2022-11-15T10:37:46;5.47;;;1.40;;
2147;SDS011;1080;48.724;9.104;2022-11-15T10:40:18;1.43;;;1.30;;
2147;SDS011;1080;48.724;9.104;2022-11-15T10:42:47;3.17;;;2.00;;
2147;SDS011;1080;48.724;9.104;2022-11-15T10:45:24;5.10;;;2.07;;
2147;SDS011;1080;48.724;9.104;2022-11-15T10:47:53;2.50;;;1.43;;
2147;SDS011;1080;48.724;9.104;2022-11-15T10:50:26;2.50;;;1.70;;
2147;SDS011;1080;48.724;9.104;2022-11-15T10:52:57;4.70;;;1.87;;
2147;SDS011;1080;48.724;9.104;2022-11-15T10:55:26;1.67;;;1.33;;
2147;SDS011;1080;48.724;9.104;2022-11-15T10:57:56;1.63;;;1.13;;
2147;SDS011;1080;48.724;9.104;2022-11-15T11:00:32;2.23;;;1.90;;
2147;SDS011;1080;48.724;9.104;2022-11-15T11:03:03;3.80;;;2.33;;
2147;SDS011;1080;48.724;9.104;2022-11-15T11:05:34;1.63;;;1.30;;
2147;SDS011;1080;48.724;9.104;2022-11-15T11:08:03;1.83;;;1.50;;
2147;SDS011;1080;48.724;9.104;2022-11-15T11:10:32;1.90;;;1.50;;
2147;SDS011;1080;48.724;9.104;2022-11-15T11:13:12;4.13;;;1.47;;
2147;SDS011;1080;48.724;9.104;2022-11-15T11:15:40;2.27;;;1.73;;
2147;SDS011;1080;48.724;9.104;2022-11-15T11:18:15;2.27;;;1.60;;
2147;SDS011;1080;48.724;9.104;2022-11-15T11:20:50;1.77;;;1.40;;
2147;SDS011;1080;48.724;9.104;2022-11-15T11:23:29;2.10;;;1.90;;
2147;SDS011;1080;48.724;9.104;2022-11-15T11:26:09;6.20;;;4.20;;
2147;SDS011;1080;48.724;9.104;2022-11-15T11:28:46;2.17;;;1.60;;
2147;SDS011;1080;48.724;9.104;2022-11-15T11:31:22;7.20;;;1.60;;
2147;SDS011;1080;48.724;9.104;2022-11-15T11:33:57;1.40;;;1.13;;
2147;SDS011;1080;48.724;9.104;2022-11-15T11:36:36;1.90;;;1.20;;
2147;SDS011;1080;48.724;9.104;2022-11-15T11:39:15;8.90;;;1.53;;
2147;SDS011;1080;48.724;9.104;2022-11-15T11:41:50;1.43;;;1.33;;
2147;SDS011;1080;48.724;9.104;2022-11-15T11:44:30;3.20;;;2.90;;
2147;SDS011;1080;48.724;9.104;2022-11-15T11:47:03;2.20;;;1.70;;
2147;SDS011;1080;48.724;9.104;2022-11-15T11:49:38;3.30;;;1.33;;
2147;SDS011;1080;48.724;9.104;2022-11-15T11:52:13;2.40;;;1.33;;
2147;SDS011;1080;48.724;9.104;2022-11-15T11:54:48;1.50;;;1.40;;
2147;SDS011;1080;48.724;9.104;2022-11-15T11:57:25;2.07;;;1.07;;
2147;SDS011;1080;48.724;9.104;2022-11-15T12:00:12;1.20;;;1.07;;
2147;SDS011;1080;48.724;9.104;2022-11-15T12:02:44;2.70;;;0.93;;
2147;SDS011;1080;48.724;9.104;2022-11-15T12:05:18;1.40;;;1.00;;
2147;SDS011;1080;48.724;9.104;2022-11-15T12:07:50;1.53;;;0.93;;
2147;SDS011;1080;48.724;9.104;2022-11-15T12:10:21;2.70;;;1.40;;
2147;SDS011;1080;48.724;9.104;2022-11-15T12:12:53;1.33;;;1.23;;
2147;SDS011;1080;48.724;9.104;2022-11-15T12:15:25;1.40;;;1.30;;
2147;SDS011;1080;48.724;9.104;2022-11-15T12:17:54;1.43;;;0.93;;
2147;SDS011;1080;48.724;9.104;2022-11-15T12:20:24;3.43;;;1.37;;
2147;SDS011;1080;48.724;9.104;2022-11-15T12:22:55;1.07;;;1.00;;
2147;SDS011;1080;48.724;9.104;2022-11-15T12:25:26;1.70;;;1.60;;
2147;SDS011;1080;48.724;9.104;2022-11-15T12:27:56;1.10;;;1.00;;
2147;SDS011;1080;48.724;9.104;2022-11-15T12:30:43;2.70;;;0.90;;
2147;SDS011;1080;48.724;9.104;2022-11-15T12:33:29;1.77;;;1.57;;
2147;SDS011;1080;48.724;9.104;2022-11-15T12:35:59;1.73;;;1.47;;
2147;SDS011;1080;48.724;9.104;2022-11-15T12:41:22;7.63;;;1.40;;
2147;SDS011;1080;48.724;9.104;2022-11-15T12:43:50;2.23;;;1.27;;
2147;SDS011;1080;48.724;9.104;2022-11-15T12:46:22;2.23;;;1.40;;
2147;SDS011;1080;48.724;9.104;2022-11-15T12:49:41;4.27;;;1.40;;
2147;SDS011;1080;48.724;9.104;2022-11-15T12:52:10;1.80;;;1.27;;
2147;SDS011;1080;48.724;9.104;2022-11-15T12:57:53;2.63;;;1.47;;
2147;SDS011;1080;48.724;9.104;2022-11-15T13:06:02;3.03;;;1.30;;
2147;SDS011;1080;48.724;9.104;2022-11-15T13:08:39;1.30;;;1.20;;
2147;SDS011;1080;48.724;9.104;2022-11-15T13:17:16;3.10;;;1.60;;
2147;SDS011;1080;48.724;9.104;2022-11-15T13:19:57;5.10;;;3.40;;
2147;SDS011;1080;48.724;9.104;2022-11-15T13:22:53;11.13;;;3.10;;
2147;SDS011;1080;48.724;9.104;2022-11-15T13:25:40;3.70;;;2.20;;
2147;SDS011;1080;48.724;9.104;2022-11-15T13:28:32;5.50;;;3.30;;
2147;SDS011;1080;48.724;9.104;2022-11-15T13:31:02;3.93;;;2.47;;
2147;SDS011;1080;48.724;9.104;2022-11-15T13:33:43;3.53;;;2.30;;
2147;SDS011;1080;48.724;9.104;2022-11-15T13:36:12;3.37;;;2.30;;
2147;SDS011;1080;48.724;9.104;2022-11-15T13:38:42;3.70;;;1.87;;
2147;SDS011;1080;48.724;9.104;2022-11-15T13:41:16;4.47;;;4.00;;
2147;SDS011;1080;48.724;9.104;2022-11-15T13:43:45;3.10;;;2.33;;
2147;SDS011;1080;48.724;9.104;2022-11-15T13:46:13;2.10;;;1.57;;
2147;SDS011;1080;48.724;9.104;2022-11-15T13:48:44;2.30;;;1.90;;
2147;SDS011;1080;48.724;9.104;2022-11-15T13:51:15;5.77;;;2.47;;
2147;SDS011;1080;48.724;9.104;2022-11-15T13:53:46;2.23;;;1.60;;
2147;SDS011;1080;48.724;9.104;2022-11-15T13:56:16;4.00;;;3.03;;
2147;SDS011;1080;48.724;9.104;2022-11-15T13:58:46;3.33;;;2.70;;
2147;SDS011;1080;48.724;9.104;2022-11-15T14:01:14;1.90;;;1.70;;
2147;SDS011;1080;48.724;9.104;2022-11-15T14:03:48;2.07;;;1.77;;
2147;SDS011;1080;48.724;9.104;2022-11-15T14:06:19;2.63;;;1.90;;
2147;SDS011;1080;48.724;9.104;2022-11-15T14:08:58;3.00;;;2.20;;
2147;SDS011;1080;48.724;9.104;2022-11-15T14:11:48;4.00;;;2.33;;
2147;SDS011;1080;48.724;9.104;2022-11-15T14:14:17;2.57;;;2.00;;
2147;SDS011;1080;48.724;9.104;2022-11-15T14:16:47;5.30;;;3.30;;
2147;SDS011;1080;48.724;9.104;2022-11-15T14:22:13;5.17;;;3.80;;
2147;SDS011;1080;48.724;9.104;2022-11-15T14:24:42;9.03;;;4.77;;
2147;SDS011;1080;48.724;9.104;2022-11-15T14:27:21;8.70;;;4.00;;
2147;SDS011;1080;48.724;9.104;2022-11-15T14:29:49;7.10;;;4.17;;
2147;SDS011;1080;48.724;9.104;2022-11-15T14:32:17;7.40;;;4.30;;
2147;SDS011;1080;48.724;9.104;2022-11-15T14:34:47;8.03;;;5.10;;
2147;SDS011;1080;48.724;9.104;2022-11-15T14:37:21;15.60;;;4.70;;
2147;SDS011;1080;48.724;9.104;2022-11-15T14:39:49;15.23;;;5.33;;
2147;SDS011;1080;48.724;9.104;2022-11-15T14:42:17;8.30;;;5.40;;
2147;SDS011;1080;48.724;9.104;2022-11-15T14:44:44;10.70;;;4.90;;
2147;SDS011;1080;48.724;9.104;2022-11-15T14:47:11;16.13;;;6.30;;
2147;SDS011;1080;48.724;9.104;2022-11-15T14:49:38;10.53;;;5.30;;
2147;SDS011;1080;48.724;9.104;2022-11-15T14:52:10;10.43;;;4.83;;
2147;SDS011;1080;48.724;9.104;2022-11-15T14:54:50;8.73;;;5.80;;
2147;SDS011;1080;48.724;9.104;2022-11-15T14:57:17;11.70;;;5.80;;
2147;SDS011;1080;48.724;9.104;2022-11-15T14:59:44;11.53;;;5.60;;
2147;SDS011;1080;48.724;9.104;2022-11-15T15:02:14;16.10;;;7.43;;
2147;SDS011;1080;48.724;9.104;2022-11-15T15:04:44;18.67;;;5.27;;
2147;SDS011;1080;48.724;9.104;2022-11-15T15:07:12;19.47;;;6.10;;
2147;SDS011;1080;48.724;9.104;2022-11-15T15:09:39;7.53;;;5.03;;
2147;SDS011;1080;48.724;9.104;2022-11-15T15:12:10;9.63;;;4.27;;
2147;SDS011;1080;48.724;9.104;2022-11-15T15:14:41;9.60;;;6.20;;
2147;SDS011;1080;48.724;9.104;2022-11-15T15:17:08;30.63;;;24.17;;
2147;SDS011;1080;48.724;9.104;2022-11-15T15:19:35;9.70;;;6.00;;
2147;SDS011;1080;48.724;9.104;2022-11-15T15:22:02;10.47;;;7.20;;
2147;SDS011;1080;48.724;9.104;2022-11-15T15:24:31;8.57;;;5.70;;
2147;SDS011;1080;48.724;9.104;2022-11-15T15:26:58;11.60;;;6.37;;
2147;SDS011;1080;48.724;9.104;2022-11-15T15:29:25;7.97;;;6.30;;
2147;SDS011;1080;48.724;9.104;2022-11-15T15:31:52;9.07;;;5.47;;
2147;SDS011;1080;48.724;9.104;2022-11-15T15:34:19;68.87;;;35.80;;
2147;SDS011;1080;48.724;9.104;2022-11-15T15:36:46;12.20;;;8.30;;
2147;SDS011;1080;48.724;9.104;2022-11-15T15:39:13;6.50;;;4.83;;
2147;SDS011;1080;48.724;9.104;2022-11-15T15:41:42;69.00;;;35.20;;
2147;SDS011;1080;48.724;9.104;2022-11-15T15:44:09;17.13;;;9.63;;
2147;SDS011;1080;48.724;9.104;2022-11-15T15:46:36;181.87;;;79.67;;
2147;SDS011;1080;48.724;9.104;2022-11-15T15:49:03;154.17;;;68.53;;
2147;SDS011;1080;48.724;9.104;2022-11-15T15:51:30;152.60;;;73.20;;
2147;SDS011;1080;48.724;9.104;2022-11-15T15:53:58;41.53;;;22.23;;
2147;SDS011;1080;48.724;9.104;2022-11-15T15:56:25;81.67;;;42.63;;